Time;durP1;ratioP1;P1;durP2;ratioP2;P2;SDS_P1;SDS_P2;PMS_P1;PMS_P2;Temp;Humidity;BMP_temperature;BMP_pressure;BME280_temperature;BME280_humidity;BME280_pressure;Samples;Min_cycle;Max_cycle;Signal;HPM_P1;HPM_P2
2021/01/06 00:02:06;;;;;;;43.78;20.80;;;;;;;;;;6245453;22;20007;-79
2021/01/06 00:04:32;;;;;;;41.28;20.08;;;;;;;;;;6271574;22;20014;-80
2021/01/06 00:06:58;;;;;;;37.05;19.13;;;;;;;;;;6245850;22;20053;-78
2021/01/06 00:09:24;;;;;;;41.95;20.17;;;;;;;;;;6272259;22;19996;-78
2021/01/06 00:11:50;;;;;;;35.53;18.35;;;;;;;;;;6271968;22;20006;-79
2021/01/06 00:14:16;;;;;;;34.40;18.15;;;;;;;;;;6244917;22;20499;-79
2021/01/06 00:16:43;;;;;;;36.03;19.08;;;;;;;;;;6245428;22;19999;-78
2021/01/06 00:19:10;;;;;;;36.13;18.02;;;;;;;;;;6271885;22;20010;-79
2021/01/06 00:21:38;;;;;;;45.83;19.75;;;;;;;;;;6272313;22;20010;-79
2021/01/06 00:24:04;;;;;;;46.10;20.38;;;;;;;;;;6244524;22;20458;-79
2021/01/06 00:26:36;;;;;;;44.25;22.05;;;;;;;;;;6272183;22;20049;-79
2021/01/06 00:29:03;;;;;;;42.72;20.58;;;;;;;;;;6245194;22;20053;-78
2021/01/06 00:31:29;;;;;;;34.90;18.90;;;;;;;;;;6245070;22;20076;-78
2021/01/06 00:33:55;;;;;;;43.35;19.90;;;;;;;;;;6272127;22;20760;-79
2021/01/06 00:36:22;;;;;;;39.58;19.60;;;;;;;;;;6244385;22;20012;-80
2021/01/06 00:38:51;;;;;;;40.75;19.88;;;;;;;;;;6245356;22;19996;-79
2021/01/06 00:41:30;;;;;;;39.90;19.92;;;;;;;;;;6245377;22;20008;-80
2021/01/06 00:43:57;;;;;;;42.38;20.52;;;;;;;;;;6272784;22;20313;-79
2021/01/06 00:46:27;;;;;;;45.95;21.67;;;;;;;;;;6244397;22;20570;-78
2021/01/06 00:48:53;;;;;;;42.88;21.00;;;;;;;;;;6272142;22;20006;-80
2021/01/06 00:51:19;;;;;;;45.13;22.50;;;;;;;;;;6272517;22;19996;-80
2021/01/06 00:53:45;;;;;;;62.20;22.45;;;;;;;;;;6245310;22;20007;-80
2021/01/06 00:56:11;;;;;;;54.22;23.80;;;;;;;;;;6244573;22;20000;-80
2021/01/06 00:58:37;;;;;;;45.10;23.23;;;;;;;;;;6272207;22;20000;-78
2021/01/06 01:01:03;;;;;;;55.35;25.10;;;;;;;;;;6272537;22;19999;-77
2021/01/06 01:03:29;;;;;;;61.22;26.13;;;;;;;;;;6272177;22;20007;-80
2021/01/06 01:05:55;;;;;;;49.80;23.55;;;;;;;;;;6271681;22;20448;-81
2021/01/06 01:08:21;;;;;;;56.90;25.45;;;;;;;;;;6271777;22;20027;-76
2021/01/06 01:10:49;;;;;;;49.95;24.15;;;;;;;;;;6245249;22;20328;-80
2021/01/06 01:13:14;;;;;;;;;;;;;;;;;;6272408;22;19996;-78
2021/01/06 01:15:41;;;;;;;49.78;21.85;;;;;;;;;;6271231;22;19910;-80
2021/01/06 01:18:10;;;;;;;42.80;21.03;;;;;;;;;;6244705;22;20026;-79
2021/01/06 01:20:36;;;;;;;42.42;21.30;;;;;;;;;;6244354;22;20094;-78
2021/01/06 01:23:02;;;;;;;39.42;20.63;;;;;;;;;;6243996;22;20396;-80
2021/01/06 01:25:28;;;;;;;39.45;19.98;;;;;;;;;;6270982;22;20019;-78
2021/01/06 01:27:54;;;;;;;39.70;19.92;;;;;;;;;;6244452;22;20459;-79
2021/01/06 01:30:22;;;;;;;40.20;20.40;;;;;;;;;;6271541;22;20003;-78
2021/01/06 01:32:49;;;;;;;37.67;18.60;;;;;;;;;;6271362;22;20460;-79
2021/01/06 01:35:17;;;;;;;36.25;18.95;;;;;;;;;;6270868;22;20022;-79
2021/01/06 01:37:44;;;;;;;39.15;20.77;;;;;;;;;;6271704;22;19999;-78
2021/01/06 01:40:11;;;;;;;39.05;19.13;;;;;;;;;;6271648;22;20003;-79
2021/01/06 01:42:37;;;;;;;36.42;19.73;;;;;;;;;;6244324;22;20098;-79
2021/01/06 01:45:05;;;;;;;40.80;19.83;;;;;;;;;;6243736;22;20036;-79
2021/01/06 01:47:38;;;;;;;38.65;19.42;;;;;;;;;;6219399;22;20015;-78
2021/01/06 01:50:06;;;;;;;33.50;18.10;;;;;;;;;;6244021;22;20085;-78
2021/01/06 01:52:38;;;;;;;34.03;17.42;;;;;;;;;;6244761;22;20015;-80
2021/01/06 01:55:05;;;;;;;34.85;18.05;;;;;;;;;;6243796;22;20519;-79
2021/01/06 01:57:35;;;;;;;30.98;17.73;;;;;;;;;;6244308;22;19999;-77
2021/01/06 02:00:07;;;;;;;31.90;17.88;;;;;;;;;;6271707;22;20070;-79
2021/01/06 02:02:37;;;;;;;28.25;17.15;;;;;;;;;;6244606;22;20007;-79
2021/01/06 02:05:08;;;;;;;32.85;17.92;;;;;;;;;;6243956;22;20022;-79
2021/01/06 02:07:37;;;;;;;35.17;18.35;;;;;;;;;;6244677;22;20004;-79
2021/01/06 02:10:06;;;;;;;32.50;17.38;;;;;;;;;;6243869;22;20039;-79
2021/01/06 02:12:35;;;;;;;31.88;16.88;;;;;;;;;;6243982;22;20004;-78
2021/01/06 02:15:06;;;;;;;33.05;16.67;;;;;;;;;;6270406;22;20000;-78
2021/01/06 02:17:33;;;;;;;30.42;16.15;;;;;;;;;;6243934;22;20004;-78
2021/01/06 02:19:59;;;;;;;28.70;15.73;;;;;;;;;;6271396;22;20010;-78
2021/01/06 02:22:25;;;;;;;29.67;17.15;;;;;;;;;;6240110;22;20003;-79
2021/01/06 02:24:51;;;;;;;28.33;16.55;;;;;;;;;;6243349;22;20498;-80
2021/01/06 02:27:18;;;;;;;28.92;16.23;;;;;;;;;;6244774;22;20007;-79
2021/01/06 02:29:44;;;;;;;28.47;15.67;;;;;;;;;;6271529;22;20004;-79
2021/01/06 02:32:11;;;;;;;29.30;16.00;;;;;;;;;;6271762;22;20271;-80
2021/01/06 02:34:38;;;;;;;26.13;14.95;;;;;;;;;;6245228;22;20441;-77
2021/01/06 02:37:05;;;;;;;26.65;15.40;;;;;;;;;;6245939;22;20004;-79
2021/01/06 02:39:31;;;;;;;27.27;15.30;;;;;;;;;;6246490;22;20011;-78
2021/01/06 02:41:58;;;;;;;28.13;15.35;;;;;;;;;;6273177;22;20455;-78
2021/01/06 02:44:24;;;;;;;24.77;14.38;;;;;;;;;;6245725;22;20004;-77
2021/01/06 02:46:50;;;;;;;24.27;14.85;;;;;;;;;;6246352;22;20010;-79
2021/01/06 02:49:17;;;;;;;25.63;14.68;;;;;;;;;;6245824;22;20003;-78
2021/01/06 02:52:03;;;;;;;25.35;15.00;;;;;;;;;;6245633;22;19995;-78
2021/01/06 02:54:33;;;;;;;26.48;14.50;;;;;;;;;;6272749;22;20061;-77
2021/01/06 02:56:59;;;;;;;24.88;14.50;;;;;;;;;;6273215;22;19999;-78
2021/01/06 02:59:28;;;;;;;25.67;14.70;;;;;;;;;;6246118;22;20061;-79
2021/01/06 03:01:54;;;;;;;26.35;15.32;;;;;;;;;;6247408;22;20004;-79
2021/01/06 03:04:23;;;;;;;28.73;14.55;;;;;;;;;;6274363;22;20007;-78
2021/01/06 03:06:50;;;;;;;26.67;15.73;;;;;;;;;;6275464;22;20437;-77
2021/01/06 03:09:27;;;;;;;29.10;15.73;;;;;;;;;;6248291;22;20004;-79
2021/01/06 03:11:54;;;;;;;28.48;16.83;;;;;;;;;;6275967;22;20425;-78
2021/01/06 03:14:20;;;;;;;28.85;15.32;;;;;;;;;;6247895;22;20341;-78
2021/01/06 03:16:46;;;;;;;29.20;16.20;;;1.80;99.90;;;;;;6248003;22;20004;-79
2021/01/06 03:19:14;;;;;;;33.22;18.45;;;0.90;99.90;;;;;;6248437;22;20015;-77
2021/01/06 03:21:43;;;;;;;30.55;16.52;;;0.90;99.90;;;;;;6275153;22;20006;-79
2021/01/06 03:24:11;;;;;;;30.23;17.15;;;0.80;99.90;;;;;;6247772;22;20062;-79
2021/01/06 03:26:38;;;;;;;30.85;16.73;;;0.80;99.90;;;;;;6275259;22;20003;-78
2021/01/06 03:29:04;;;;;;;;;;;0.80;99.90;;;;;;6248821;22;20007;-79
2021/01/06 03:31:43;;;;;;;31.52;15.98;;;0.80;99.90;;;;;;6275092;22;19994;-78
2021/01/06 03:34:25;;;;;;;28.92;16.40;;;0.90;99.90;;;;;;6247358;22;20062;-79
2021/01/06 03:37:15;;;;;;;28.60;15.38;;;1.00;99.90;;;;;;6248355;22;20412;-78
2021/01/06 03:39:58;;;;;;;28.83;15.63;;;1.00;99.90;;;;;;6247294;22;20063;-80
2021/01/06 03:42:25;;;;;;;28.08;15.45;;;0.90;99.90;;;;;;6248113;22;20008;-81
2021/01/06 03:44:52;;;;;;;29.27;15.77;;;1.00;99.90;;;;;;6247467;22;20432;-80
2021/01/06 03:47:30;;;;;;;27.27;16.10;;;0.80;99.90;;;;;;6247777;22;20453;-80
2021/01/06 03:50:10;;;;;;;28.27;15.05;;;0.70;99.90;;;;;;6275537;22;20682;-80
2021/01/06 03:53:00;;;;;;;26.50;15.32;;;0.80;99.90;;;;;;6248344;22;20011;-78
2021/01/06 03:55:33;;;;;;;26.30;14.77;;;1.00;99.90;;;;;;6197202;22;20008;-80
2021/01/06 03:57:59;;;;;;;26.35;14.75;;;1.20;99.90;;;;;;6248320;22;20026;-80
2021/01/06 04:00:43;;;;;;;26.17;14.27;;;1.00;99.90;;;;;;6274862;22;19995;-80
2021/01/06 04:03:21;;;;;;;24.33;14.10;;;1.00;99.90;;;;;;6273178;22;20000;-79
2021/01/06 04:05:47;;;;;;;30.35;14.82;;;0.90;99.90;;;;;;6245488;22;20011;-78
2021/01/06 04:08:20;;;;;;;26.38;15.45;;;0.80;99.90;;;;;;6245657;22;20010;-80
2021/01/06 04:10:52;;;;;;;25.27;15.18;;;0.80;99.90;;;;;;6272945;22;20459;-79
2021/01/06 04:13:17;;;;;;;23.42;13.63;;;0.80;99.90;;;;;;6272958;22;19999;-79
2021/01/06 04:15:43;;;;;;;24.58;13.70;;;0.80;99.90;;;;;;6244834;22;20007;-79
2021/01/06 04:18:09;;;;;;;24.20;13.50;;;0.80;99.90;;;;;;6245077;22;19999;-78
2021/01/06 04:20:38;;;;;;;22.95;13.23;;;1.10;99.90;;;;;;6244753;22;20000;-79
2021/01/06 04:23:07;;;;;;;24.33;13.52;;;1.00;99.90;;;;;;6244867;22;20612;-79
2021/01/06 04:25:39;;;;;;;19.42;12.32;;;1.10;99.90;;;;;;6244381;22;20027;-78
2021/01/06 04:28:07;;;;;;;21.17;12.90;;;1.30;99.90;;;;;;6245243;22;20027;-80
2021/01/06 04:30:46;;;;;;;20.55;12.85;;;1.20;99.90;;;;;;6244866;22;20000;-79
2021/01/06 04:33:31;;;;;;;17.88;11.50;;;1.50;99.90;;;;;;6245051;22;19996;-78
2021/01/06 04:36:00;;;;;;;17.48;10.80;;;;;;;;;;6244700;22;20011;-79
2021/01/06 04:38:27;;;;;;;16.92;11.32;;;;;;;;;;6244995;22;20332;-78
2021/01/06 04:40:55;;;;;;;19.83;11.75;;;;;;;;;;6244896;22;20008;-80
2021/01/06 04:43:40;;;;;;;16.58;10.75;;;;;;;;;;6245057;22;20015;-78
2021/01/06 04:46:32;;;;;;;17.35;10.52;;;;;;;;;;6244619;22;20012;-78
2021/01/06 04:49:15;;;;;;;16.02;10.57;;;;;;;;;;6188439;22;20077;-79
2021/01/06 04:51:52;;;;;;;18.50;10.32;;;;;;;;;;6245291;22;20058;-80
2021/01/06 04:54:25;;;;;;;17.67;11.38;;;;;;;;;;6244396;22;20004;-78
2021/01/06 04:57:08;;;;;;;18.00;11.20;;;;;;;;;;6244396;22;20012;-79
2021/01/06 04:59:49;;;;;;;18.42;11.05;;;;;;;;;;6272336;22;20040;-79
2021/01/06 05:02:19;;;;;;;20.17;11.75;;;;;;;;;;6271774;22;20011;-78
2021/01/06 05:04:54;;;;;;;15.45;10.30;;;;;;;;;;6244465;22;20015;-80
2021/01/06 05:07:45;;;;;;;16.88;10.00;;;;;;;;;;6272118;22;20062;-79
2021/01/06 05:10:20;;;;;;;17.42;10.57;;;;;;;;;;6271858;22;20448;-79
2021/01/06 05:12:48;;;;;;;18.85;10.50;;;;;;;;;;6272254;22;20034;-79
2021/01/06 05:15:14;;;;;;;15.07;9.75;;;;;;;;;;6244411;22;20440;-79
2021/01/06 05:17:41;;;;;;;15.35;9.90;;;;;;;;;;6272192;22;20031;-78
2021/01/06 05:20:08;;;;;;;14.43;9.40;;;;;;;;;;6245115;22;20004;-78
2021/01/06 05:22:34;;;;;;;16.00;10.15;;;;;;;;;;6244586;22;20230;-79
2021/01/06 05:25:00;;;;;;;16.88;10.57;;;;;;;;;;6244257;22;20073;-77
2021/01/06 05:27:28;;;;;;;17.05;11.20;;;;;;;;;;6245223;22;20582;-79
2021/01/06 05:29:54;;;;;;;18.85;11.07;;;;;;;;;;6245142;22;20008;-79
2021/01/06 05:32:23;;;;;;;15.90;10.23;;;;;;;;;;6244433;22;20421;-78
2021/01/06 05:34:50;;;;;;;16.15;9.98;;;;;;;;;;6244246;22;20500;-79
2021/01/06 05:37:18;;;;;;;17.25;10.20;;;;;;;;;;6245114;22;20057;-79
2021/01/06 05:39:44;;;;;;;17.02;11.02;;;;;;;;;;6244684;22;20034;-79
2021/01/06 05:42:23;;;;;;;16.17;10.07;;;1.40;99.90;;;;;;6244529;22;20003;-79
2021/01/06 05:44:54;;;;;;;17.80;10.68;;;0.90;99.90;;;;;;6244418;22;20416;-78
2021/01/06 05:47:57;;;;;;;18.40;11.38;;;1.10;99.90;;;;;;6244886;22;20060;-78
2021/01/06 05:50:33;;;;;;;18.60;11.48;;;1.30;99.90;;;;;;6245317;22;20338;-78
2021/01/06 05:53:12;;;;;;;15.32;10.23;;;1.40;99.90;;;;;;6244889;22;20665;-79
2021/01/06 05:55:40;;;;;;;16.10;10.35;;;1.40;99.90;;;;;;6244612;22;19999;-80
2021/01/06 05:58:19;;;;;;;15.98;9.90;;;1.60;99.90;;;;;;6244770;22;20012;-79
2021/01/06 06:01:11;;;;;;;15.13;8.93;;;1.70;99.90;;;;;;6244574;22;20000;-80
2021/01/06 06:03:51;;;;;;;14.70;9.30;;;1.40;99.90;;;;;;6200335;22;20463;-79
2021/01/06 06:06:40;;;;;;;16.33;10.02;;;1.20;99.90;;;;;;6243610;22;20081;-79
2021/01/06 06:09:17;;;;;;;16.13;10.48;;;1.20;99.90;;;;;;6243067;22;20019;-78
2021/01/06 06:12:03;;;;;;;14.82;9.88;;;1.30;99.90;;;;;;6244091;22;20007;-78
2021/01/06 06:14:56;;;;;;;17.40;10.50;;;1.10;99.90;;;;;;6271247;22;20067;-79
2021/01/06 06:17:43;;;;;;;18.00;11.13;;;0.90;99.90;;;;;;6272087;22;20007;-78
2021/01/06 06:20:32;;;;;;;21.55;11.73;;;1.10;99.90;;;;;;6244126;22;20003;-78
2021/01/06 06:23:56;;;;;;;23.35;13.45;;;0.90;99.90;;;;;;6174927;22;20008;-78
2021/01/06 06:26:22;;;;;;;22.45;12.23;;;0.70;99.90;;;;;;6111739;22;20002;-80
2021/01/06 06:29:01;;;;;;;22.83;13.05;;;0.60;99.90;;;;;;6244662;22;20083;-78
2021/01/06 06:31:36;;;;;;;21.58;13.23;;;0.70;99.90;;;;;;6243751;22;20069;-79
2021/01/06 06:34:05;;;;;;;23.98;13.02;;;0.60;99.90;;;;;;6244921;22;20083;-79
2021/01/06 06:36:35;;;;;;;21.92;13.40;;;0.70;99.90;;;;;;6244191;22;20053;-79
2021/01/06 06:39:25;;;;;;;20.92;12.50;;;0.70;99.90;;;;;;6271771;22;20007;-79
2021/01/06 06:41:53;;;;;;;22.55;12.18;;;0.70;99.90;;;;;;6244048;22;20441;-79
2021/01/06 06:44:28;;;;;;;21.58;12.60;;;0.90;99.90;;;;;;6244084;22;20054;-78
2021/01/06 06:47:01;;;;;;;21.02;11.18;;;1.00;99.90;;;;;;6244371;22;20000;-78
2021/01/06 06:50:04;;;;;;;20.23;12.02;;;1.10;99.90;;;;;;6244502;22;20016;-79
2021/01/06 06:52:49;;;;;;;18.25;11.38;;;1.10;99.90;;;;;;6243864;22;20003;-79
2021/01/06 06:55:31;;;;;;;20.90;12.07;;;1.30;99.90;;;;;;6244183;22;20003;-80
2021/01/06 06:58:18;;;;;;;19.33;12.00;;;0.90;99.90;;;;;;6244719;22;20007;-80
2021/01/06 07:00:45;;;;;;;21.45;11.98;;;1.00;99.90;;;;;;6244133;22;20620;-78
2021/01/06 07:03:12;;;;;;;21.35;12.70;;;0.80;99.90;;;;;;6244618;22;20011;-80
2021/01/06 07:05:47;;;;;;;20.35;12.00;;;1.10;99.90;;;;;;6243719;22;20016;-79
2021/01/06 07:08:37;;;;;;;21.48;12.77;;;1.00;99.90;;;;;;6271125;22;20025;-79
2021/01/06 07:11:20;;;;;;;22.95;12.60;;;0.70;99.90;;;;;;6244460;22;20027;-79
2021/01/06 07:13:59;;;;;;;20.15;12.18;;;0.80;99.90;;;;;;6244524;22;20016;-79
2021/01/06 07:16:43;;;;;;;17.17;11.10;;;1.10;99.90;;;;;;6271407;22;19996;-78
2021/01/06 07:19:26;;;;;;;19.73;11.73;;;1.10;99.90;;;;;;6244772;22;20375;-78
2021/01/06 07:22:17;;;;;;;20.27;11.30;;;1.20;99.90;;;;;;6245762;22;20336;-78
2021/01/06 07:24:49;;;;;;;18.02;10.95;;;1.40;99.90;;;;;;6225528;22;20003;-78
2021/01/06 07:27:15;;;;;;;18.48;10.38;;;1.50;99.90;;;;;;6246248;22;20029;-79
2021/01/06 07:29:47;;;;;;;18.83;10.85;;;1.30;99.90;;;;;;6245962;22;20432;-79
2021/01/06 07:32:13;;;;;;;19.05;10.82;;;1.40;99.90;;;;;;6273374;22;20000;-78
2021/01/06 07:34:54;;;;;;;18.85;12.13;;;1.40;99.90;;;;;;6245488;22;20007;-79
2021/01/06 07:37:43;;;;;;;26.02;14.57;;;1.30;99.90;;;;;;6245899;22;20456;-79
2021/01/06 07:40:17;;;;;;;22.42;13.48;;;1.00;99.90;;;;;;6245990;22;20008;-79
2021/01/06 07:42:48;;;;;;;23.55;13.63;;;0.80;99.90;;;;;;6246432;22;20038;-79
2021/01/06 07:45:20;;;;;;;19.95;12.77;;;1.20;99.90;;;;;;6245540;22;20057;-79
2021/01/06 07:48:15;;;;;;;19.85;11.88;;;1.40;99.90;;;;;;6245724;22;20688;-79
2021/01/06 07:51:01;;;;;;;17.67;11.20;;;1.30;99.90;;;;;;6179135;22;20066;-78
2021/01/06 07:53:48;;;;;;;17.92;11.05;;;1.40;99.90;;;;;;6245489;22;20012;-80
2021/01/06 07:56:39;;;;;;;24.17;13.93;;;1.50;99.90;;;;;;6218692;22;20452;-79
2021/01/06 07:59:15;;;;;;;23.50;13.15;;;1.30;99.90;;;;;;6245574;22;20023;-79
2021/01/06 08:01:52;;;;;;;21.73;12.20;;;1.50;99.90;;;;;;6245563;22;20003;-78
2021/01/06 08:04:22;;;;;;;17.05;10.88;;;1.30;99.90;;;;;;6272523;22;20003;-79
2021/01/06 08:06:57;;;;;;;19.73;12.25;;;1.40;99.90;;;;;;6245760;22;20587;-79
2021/01/06 08:09:33;;;;;;;18.63;11.80;;;1.30;99.90;;;;;;6245742;22;20112;-78
2021/01/06 08:12:01;;;;;;;18.20;11.05;;;1.10;99.90;;;;;;6246455;22;20007;-79
2021/01/06 08:14:32;;;;;;;22.63;13.02;;;0.70;99.90;;;;;;6245448;22;20088;-78
2021/01/06 08:17:09;;;;;;;25.10;13.98;;;0.80;99.90;;;;;;6245972;22;20058;-79
2021/01/06 08:19:57;;;;;;;25.17;14.98;;;0.80;99.90;;;;;;6246051;22;20011;-79
2021/01/06 08:22:29;;;;;;;24.83;14.15;;;0.80;99.90;;;;;;6245528;22;20004;-80
2021/01/06 08:25:01;;;;;;;27.95;14.35;;;0.70;99.90;;;;;;6244898;22;20390;-79
2021/01/06 08:27:38;;;;;;;24.20;13.85;;;0.80;99.90;;;;;;6245791;22;20007;-79
2021/01/06 08:30:11;;;;;;;27.48;15.52;;;0.80;99.90;;;;;;6272586;22;20007;-78
2021/01/06 08:32:37;;;;;;;23.33;14.10;;;0.90;99.90;;;;;;6245212;22;19996;-79
2021/01/06 08:35:14;;;;;;;23.45;15.05;;;0.80;99.90;;;;;;6244837;22;20510;-80
2021/01/06 08:37:40;;;;;;;24.30;13.25;;;1.10;99.90;;;;;;6245483;22;20122;-80
2021/01/06 08:40:23;;;;;;;21.63;12.02;;;1.20;99.90;;;;;;6245074;22;20462;-79
2021/01/06 08:42:50;;;;;;;19.50;11.27;;;1.30;99.90;;;;;;6272340;22;20353;-80
2021/01/06 08:45:30;;;;;;;18.92;11.75;;;1.50;99.90;;;;;;6244842;22;20012;-80
2021/01/06 08:47:56;;;;;;;18.83;11.52;;;1.40;99.90;;;;;;6272608;22;20015;-79
2021/01/06 08:50:27;;;;;;;18.40;11.35;;;1.60;99.90;;;;;;6245036;22;20008;-80
2021/01/06 08:52:57;;;;;;;18.17;11.02;;;1.80;99.90;;;;;;6245516;22;20485;-80
2021/01/06 08:55:23;;;;;;;20.35;12.00;;;1.70;99.90;;;;;;6271899;22;20459;-79
2021/01/06 08:58:04;;;;;;;18.60;10.18;;;;;;;;;;6245038;22;19996;-79
2021/01/06 09:00:36;;;;;;;18.80;11.52;;;;;;;;;;6245294;22;20004;-80
2021/01/06 09:03:09;;;;;;;24.50;15.23;;;;;;;;;;6245942;22;19996;-80
2021/01/06 09:05:44;;;;;;;18.33;11.55;;;;;;;;;;6244604;22;20015;-79
2021/01/06 09:08:15;;;;;;;19.13;12.13;;;;;;;;;;6245826;22;20053;-80
2021/01/06 09:11:04;;;;;;;36.65;19.75;;;;;;;;;;6272391;22;20277;-79
2021/01/06 09:13:38;;;;;;;27.45;15.10;;;;;;;;;;6245441;22;20011;-79
2021/01/06 09:16:14;;;;;;;21.27;15.27;;;;;;;;;;6244679;22;20010;-79
2021/01/06 09:18:40;;;;;;;24.15;15.57;;;;;;;;;;6245465;22;20153;-80
2021/01/06 09:21:29;;;;;;;27.25;16.42;;;;;;;;;;6244243;22;20008;-80
2021/01/06 09:23:57;;;;;;;37.85;21.90;;;;;;;;;;6244999;22;20006;-81
2021/01/06 09:26:25;;;;;;;39.05;22.80;;;;;;;;;;6245168;22;20007;-80
2021/01/06 09:28:50;;;;;;;;;;;;;;;;;;6245395;22;20000;-81
2021/01/06 09:31:17;;;;;;;86.25;40.90;;;;;;;;;;6245048;22;20243;-81
2021/01/06 09:33:43;;;;;;;61.10;31.70;;;;;;;;;;6244613;22;20141;-81
2021/01/06 09:36:09;;;;;;;65.38;35.53;;;;;;;;;;6244096;22;20000;-81
2021/01/06 09:38:49;;;;;;;87.63;44.22;;;;;;;;;;6244806;22;20012;-79
2021/01/06 09:41:18;;;;;;;86.70;47.60;;;;;;;;;;6272165;22;20007;-80
2021/01/06 09:43:49;;;;;;;22.77;12.82;;;;;;;;;;6245122;22;20083;-79
2021/01/06 09:46:31;;;;;;;19.42;12.38;;;;;;;;;;6243887;22;20011;-79
2021/01/06 09:49:03;;;;;;;21.23;13.75;;;;;;;;;;6245085;22;20018;-80
2021/01/06 09:51:29;;;;;;;18.98;12.90;;;;;;;;;;6244662;22;20027;-79
2021/01/06 09:53:58;;;;;;;17.38;10.85;;;;;;;;;;6244885;22;20034;-80
2021/01/06 09:56:26;;;;;;;20.95;12.90;;;;;;;;;;6244533;22;20000;-80
2021/01/06 09:58:53;;;;;;;13.88;9.90;;;;;;;;;;6243963;22;20465;-79
2021/01/06 10:01:25;;;;;;;14.57;10.05;;;;;;;;;;6244285;22;20340;-79
2021/01/06 10:03:53;;;;;;;20.27;11.90;;;;;;;;;;6244594;22;20049;-79
2021/01/06 10:06:22;;;;;;;18.42;9.32;;;;;;;;;;6270905;22;20437;-80
2021/01/06 10:08:52;;;;;;;21.25;11.90;;;;;;;;;;6244406;22;19999;-81
2021/01/06 10:11:30;;;;;;;15.23;10.30;;;;;;;;;;6270737;22;20002;-80
2021/01/06 10:14:21;;;;;;;14.63;10.15;;;1.70;99.90;;;;;;6244411;22;20097;-80
2021/01/06 10:17:06;;;;;;;15.55;10.32;;;1.50;99.90;;;;;;6245082;22;20008;-80
2021/01/06 10:19:40;;;;;;;15.75;8.73;;;1.70;99.90;;;;;;6244522;22;20441;-79
2021/01/06 10:22:32;;;;;;;39.75;26.42;;;1.40;99.90;;;;;;6271791;22;20107;-81
2021/01/06 10:25:24;;;;;;;34.28;17.63;;;1.40;99.90;;;;;;6243406;22;20003;-79
2021/01/06 10:28:01;;;;;;;29.38;15.57;;;;;;;;;;6243213;22;20004;-79
2021/01/06 10:30:28;;;;;;;19.90;11.50;;;;;;;;;;6244665;22;20318;-80
2021/01/06 10:33:09;;;;;;;16.33;10.38;;;;;;;;;;6244875;22;20007;-80
2021/01/06 10:35:40;;;;;;;25.35;13.38;;;;;;;;;;6243918;22;20432;-79
2021/01/06 10:38:24;;;;;;;18.02;9.80;;;;;;;;;;6244460;22;20052;-77
2021/01/06 10:40:51;;;;;;;18.27;11.38;;;;;;;;;;6243127;22;20000;-78
2021/01/06 10:43:32;;;;;;;26.65;16.30;;;;;;;;;;6271168;22;20011;-77
2021/01/06 10:45:59;;;;;;;24.20;14.18;;;;;;;;;;6244040;22;20011;-81
2021/01/06 10:48:41;;;;;;;27.55;14.20;;;;;;;;;;6244105;22;20004;-78
2021/01/06 10:51:07;;;;;;;30.88;15.77;;;;;;;;;;6244249;22;20003;-79
2021/01/06 10:53:38;;;;;;;16.75;10.25;;;;;;;;;;6271898;22;19999;-79
2021/01/06 10:56:04;;;;;;;17.70;10.85;;;;;;;;;;6245352;22;20003;-80
2021/01/06 10:58:45;;;;;;;14.95;10.30;;;;;;;;;;6246686;22;20023;-79
2021/01/06 11:01:10;;;;;;;14.38;9.50;;;;;;;;;;6272898;22;20010;-79
2021/01/06 11:03:59;;;;;;;16.50;10.02;;;;;;;;;;6247299;22;20031;-79
2021/01/06 11:06:31;;;;;;;15.57;10.65;;;;;;;;;;6245419;22;20015;-78
2021/01/06 11:09:10;;;;;;;13.98;8.60;;;;;;;;;;6246672;22;20035;-79
2021/01/06 11:11:36;;;;;;;16.00;10.15;;;;;;;;;;6245634;22;20000;-78
2021/01/06 11:14:21;;;;;;;10.95;7.65;;;;;;;;;;6247249;22;20007;-83
2021/01/06 11:16:51;;;;;;;12.18;8.45;;;;;;;;;;6248479;22;20011;-77
2021/01/06 11:19:42;;;;;;;18.30;11.65;;;;;;;;;;6250116;22;20531;-81
2021/01/06 11:22:17;;;;;;;65.20;25.52;;;;;;;;;;6246324;22;20008;-79
2021/01/06 11:24:51;;;;;;;38.88;20.95;;;;;;;;;;6269653;22;20078;-79
2021/01/06 11:27:36;;;;;;;22.65;14.93;;;;;;;;;;6272272;22;20007;-79
2021/01/06 11:30:11;;;;;;;16.73;13.20;;;;;;;;;;6246339;22;20015;-77
2021/01/06 11:32:40;;;;;;;16.17;10.45;;;;;;;;;;6245499;22;20011;-80
2021/01/06 11:35:11;;;;;;;14.70;10.57;;;;;;;;;;6220588;22;20619;-78
2021/01/06 11:37:38;;;;;;;14.02;9.32;;;;;;;;;;6252638;22;19996;-81
2021/01/06 11:40:11;;;;;;;39.60;24.85;;;;;;;;;;6252853;22;20433;-79
2021/01/06 11:43:04;;;;;;;13.60;9.10;;;;;;;;;;6258646;22;20011;-82
2021/01/06 11:45:35;;;;;;;47.78;26.27;;;;;;;;;;6204281;22;20023;-83
2021/01/06 11:48:05;;;;;;;53.97;27.88;;;;;;;;;;6274690;22;20008;-84
2021/01/06 11:50:48;;;;;;;22.00;13.40;;;;;;;;;;6339410;22;20019;-81
2021/01/06 11:53:23;;;;;;;18.45;11.00;;;;;;;;;;6352561;22;19998;-82
2021/01/06 11:58:43;;;;;;;20.20;10.40;;;;;;;;;;6349160;22;20011;-85
2021/01/06 12:01:30;;;;;;;21.83;13.90;;;;;;;;;;6341141;22;20006;-78
2021/01/06 12:03:55;;;;;;;19.10;10.93;;;;;;;;;;6316871;22;20007;-78
2021/01/06 12:06:24;;;;;;;16.80;9.35;;;;;;;;;;6333860;22;20082;-81
2021/01/06 12:08:59;;;;;;;19.77;12.98;;;;;;;;;;6332411;22;20036;-79
2021/01/06 12:11:27;;;;;;;15.82;10.18;;;;;;;;;;6334295;22;20019;-81
2021/01/06 12:14:02;;;;;;;15.05;10.27;;;;;;;;;;6333560;22;20466;-77
2021/01/06 12:16:43;;;;;;;14.68;9.65;;;;;;;;;;6333205;22;19999;-79
2021/01/06 12:19:21;;;;;;;15.07;11.02;;;;;;;;;;6336776;22;20005;-83
2021/01/06 12:21:47;;;;;;;;;;;;;;;;;;6334109;22;20064;-78
2021/01/06 12:24:16;;;;;;;13.18;8.55;;;;;;;;;;6332730;22;20384;-78
2021/01/06 12:26:44;;;;;;;14.85;9.20;;;;;;;;;;6332651;22;20007;-78
2021/01/06 12:29:14;;;;;;;13.93;9.82;;;;;;;;;;6334191;22;20006;-79
2021/01/06 12:31:39;;;;;;;17.20;11.00;;;;;;;;;;6333051;22;19998;-76
2021/01/06 12:34:13;;;;;;;17.35;10.45;;;;;;;;;;6332790;22;20069;-77
2021/01/06 12:37:15;;;;;;;17.63;10.55;;;;;;;;;;6331401;22;20005;-78
2021/01/06 12:39:42;;;;;;;13.45;9.70;;;;;;;;;;6248484;22;20413;-85
2021/01/06 12:42:15;;;;;;;15.35;9.68;;;;;;;;;;6318769;22;20003;-80
2021/01/06 12:44:43;;;;;;;14.63;8.75;;;;;;;;;;6331841;22;20030;-78
2021/01/06 12:47:24;;;;;;;14.10;9.13;;;;;;;;;;6332137;22;20007;-77
2021/01/06 12:49:56;;;;;;;11.52;8.05;;;;;;;;;;6331830;22;20086;-79
2021/01/06 12:52:34;;;;;;;9.52;6.15;;;;;;;;;;6330583;22;20610;-79
2021/01/06 12:55:19;;;;;;;11.68;8.07;;;;;;;;;;6331223;22;20103;-78
2021/01/06 12:57:47;;;;;;;12.18;8.75;;;;;;;;;;6332461;22;19994;-77
2021/01/06 13:00:21;;;;;;;12.07;6.75;;;;;;;;;;6333163;22;20011;-80
2021/01/06 13:02:47;;;;;;;13.93;7.85;;;;;;;;;;6333241;22;20034;-77
2021/01/06 13:05:16;;;;;;;8.82;6.30;;;;;;;;;;6331712;22;20090;-81
2021/01/06 13:07:48;;;;;;;10.63;7.30;;;;;;;;;;6332049;22;20394;-78
2021/01/06 13:10:17;;;;;;;13.30;7.63;;;;;;;;;;6331719;22;19999;-78
2021/01/06 13:12:48;;;;;;;13.77;7.60;;;;;;;;;;6332085;22;20003;-79
2021/01/06 13:15:14;;;;;;;10.05;7.43;;;;;;;;;;6330596;22;20106;-77
2021/01/06 13:17:41;;;;;;;12.18;7.45;;;;;;;;;;6333151;22;20431;-78
2021/01/06 13:20:16;;;;;;;13.00;7.50;;;;;;;;;;6332149;22;20007;-79
2021/01/06 13:22:42;;;;;;;13.93;8.63;;;;;;;;;;6331009;22;20363;-78
2021/01/06 13:25:08;;;;;;;14.90;8.55;;;;;;;;;;6330608;22;20007;-78
2021/01/06 13:27:56;;;;;;;14.00;8.85;;;;;;;;;;6331183;22;20669;-78
2021/01/06 13:30:27;;;;;;;10.73;6.97;;;;;;;;;;6330895;22;20003;-79
2021/01/06 13:32:59;;;;;;;13.23;7.40;;;;;;;;;;6331133;22;20002;-78
2021/01/06 13:35:31;;;;;;;12.57;7.70;;;;;;;;;;6331427;22;20057;-78
2021/01/06 13:38:16;;;;;;;11.35;7.35;;;;;;;;;;6332490;22;20092;-81
2021/01/06 13:40:45;;;;;;;11.40;7.15;;;;;;;;;;6331763;22;20007;-80
2021/01/06 13:43:21;;;;;;;15.43;7.47;;;;;;;;;;6333213;22;20442;-80
2021/01/06 13:45:50;;;;;;;12.38;8.00;;;;;;;;;;6331544;22;20098;-80
2021/01/06 13:48:22;;;;;;;13.18;8.27;;;;;;;;;;6333756;22;20014;-79
2021/01/06 13:51:09;;;;;;;12.98;8.05;;;;;;;;;;6334662;22;20052;-79
2021/01/06 13:53:35;;;;;;;;;;;;;;;;;;6307681;22;20011;-80
2021/01/06 13:56:01;;;;;;;57.47;37.22;;;;;;;;;;6304201;22;19925;-80
2021/01/06 13:58:31;;;;;;;34.35;21.73;;;;;;;;;;6304275;22;20483;-80
2021/01/06 14:01:08;;;;;;;22.38;13.55;;;;;;;;;;6303728;22;19999;-80
2021/01/06 14:03:37;;;;;;;14.80;10.30;;;;;;;;;;6304004;22;20139;-80
2021/01/06 14:06:03;;;;;;;18.80;12.90;;;;;;;;;;6330974;22;19999;-79
2021/01/06 14:08:32;;;;;;;33.10;18.83;;;;;;;;;;6303521;22;20011;-78
2021/01/06 14:11:10;;;;;;;99.45;45.30;;;;;;;;;;6304030;22;19998;-79
2021/01/06 14:13:55;;;;;;;24.33;15.98;;;;;;;;;;6331814;22;19998;-79
2021/01/06 14:16:24;;;;;;;18.33;11.90;;;;;;;;;;6302773;22;20003;-80
2021/01/06 14:19:00;;;;;;;16.92;10.38;;;;;;;;;;6331720;22;20003;-79
2021/01/06 14:21:45;;;;;;;19.95;9.48;;;;;;;;;;6304099;22;20003;-80